AFR248 LFPG-RPLL
Flight info
| Callsign | AFR248 |
|---|---|
| Flight time | N/A |
| Altitude | 33000 |
| Route | LANVI DCT LUPEN/N0486F350 UM164 UTABA DCT INPUL DCT VATET DCT MOPUG DCT NERDI DCT ASNEL DCT UDROS DCT ABSAX UN743 GAKSU UT310 SIN DCT DELEL/N0481F370 DCT REBLO DCT MATAL T916 SUBUT M747 LUSAL N199 RASAM L88 METKA B476 DARVA/K0911F370 T898 OGOLI N193 SR L163 TISIB L141 DIPAX/K0911F390 L141 KAMUD/K0904S1190 W186 SADAN Y1 OMBON W245 OVRAL B330 DAGDI/K0898S1250 B330 KWE W181 DUDIT A599 POU B330 TAMOT/N0481F410 B330 BIGEX DCT POVAM DCT NOPER V642 NOMAN A461 AVMUP W16 TADEL TADEL3P |
| Aircraft | A359/H-SABDE2E3GHIJ1J2J3J4J5M1P2RWXYZ/LB1D1 |
Departure
| Time | N/A |
|---|---|
| Airport | Charles de Gaulle International Airport (LFPG) |
Arrival
| Time | 2026-05-01 09:36 |
|---|---|
| Airport | Ninoy Aquino International Airport (RPLL) |
| Time | Latitude | Longitude | Altitude | Speed | Heading |
|---|---|---|---|---|---|
| 2026-05-01 07:53 | 23.16404 | 112.03939 | 40938 ft | 526 kts | 102° |
| 2026-05-01 07:53 | 23.15607 | 112.07764 | 40938 ft | 526 kts | 103° |
| 2026-05-01 07:53 | 23.13987 | 112.15513 | 40938 ft | 526 kts | 102° |
| 2026-05-01 07:55 | 23.09917 | 112.34861 | 40938 ft | 525 kts | 102° |
| 2026-05-01 07:56 | 23.06610 | 112.54319 | 40939 ft | 524 kts | 94° |
| 2026-05-01 07:57 | 23.05800 | 112.66146 | 40937 ft | 523 kts | 92° |
| 2026-05-01 07:58 | 23.04755 | 112.81915 | 40939 ft | 523 kts | 92° |
| 2026-05-01 07:59 | 23.03669 | 112.97632 | 40937 ft | 522 kts | 92° |
| 2026-05-01 08:00 | 22.99623 | 113.20595 | 40942 ft | 521 kts | 123° |
| 2026-05-01 08:01 | 22.92345 | 113.29263 | 40939 ft | 519 kts | 138° |
| 2026-05-01 08:01 | 22.89704 | 113.31936 | 40933 ft | 519 kts | 138° |
| 2026-05-01 08:02 | 22.81803 | 113.39884 | 40942 ft | 518 kts | 138° |
| 2026-05-01 08:03 | 22.73937 | 113.47896 | 40945 ft | 516 kts | 137° |
| 2026-05-01 08:03 | 22.66103 | 113.55894 | 40960 ft | 516 kts | 137° |
| 2026-05-01 08:04 | 22.55647 | 113.66544 | 40965 ft | 516 kts | 137° |
| 2026-05-01 08:05 | 22.47822 | 113.74497 | 40964 ft | 513 kts | 137° |
| 2026-05-01 08:06 | 22.40033 | 113.82401 | 40964 ft | 511 kts | 137° |
| 2026-05-01 08:07 | 22.29966 | 113.93241 | 40963 ft | 511 kts | 132° |
| 2026-05-01 08:08 | 22.22881 | 114.01849 | 40966 ft | 511 kts | 132° |
| 2026-05-01 08:09 | 22.13965 | 114.13770 | 40970 ft | 508 kts | 127° |
| 2026-05-01 08:09 | 22.09681 | 114.19836 | 40965 ft | 508 kts | 128° |
| 2026-05-01 08:10 | 22.00988 | 114.31823 | 40966 ft | 508 kts | 128° |
| 2026-05-01 08:11 | 21.92253 | 114.43773 | 40967 ft | 507 kts | 128° |
| 2026-05-01 08:12 | 21.85703 | 114.52722 | 40964 ft | 507 kts | 128° |
| 2026-05-01 08:13 | 21.79185 | 114.61616 | 40964 ft | 507 kts | 128° |
| 2026-05-01 08:13 | 21.72631 | 114.70543 | 40963 ft | 507 kts | 129° |
| 2026-05-01 08:14 | 21.68255 | 114.76496 | 40961 ft | 507 kts | 129° |
| 2026-05-01 08:14 | 21.63878 | 114.82443 | 40960 ft | 507 kts | 129° |
| 2026-05-01 08:15 | 21.57310 | 114.91356 | 40961 ft | 507 kts | 129° |
| 2026-05-01 08:16 | 21.52927 | 114.97295 | 40967 ft | 507 kts | 129° |
| 2026-05-01 08:16 | 21.48544 | 115.03229 | 40959 ft | 507 kts | 129° |
| 2026-05-01 08:17 | 21.44155 | 115.09164 | 40958 ft | 507 kts | 129° |
| 2026-05-01 08:17 | 21.39766 | 115.15092 | 40960 ft | 508 kts | 129° |
| 2026-05-01 08:18 | 21.35367 | 115.21027 | 40971 ft | 508 kts | 129° |
| 2026-05-01 08:19 | 21.26567 | 115.32882 | 40960 ft | 508 kts | 129° |
| 2026-05-01 08:19 | 21.22698 | 115.39221 | 40961 ft | 508 kts | 121° |
| 2026-05-01 08:20 | 21.19151 | 115.45783 | 40958 ft | 509 kts | 120° |
| 2026-05-01 08:20 | 21.15653 | 115.52372 | 40959 ft | 509 kts | 120° |
| 2026-05-01 08:21 | 21.12150 | 115.58953 | 40958 ft | 509 kts | 120° |
| 2026-05-01 08:21 | 21.08631 | 115.65528 | 40954 ft | 509 kts | 120° |
| 2026-05-01 08:22 | 21.05109 | 115.72093 | 40958 ft | 508 kts | 120° |
| 2026-05-01 08:22 | 21.01588 | 115.78647 | 40954 ft | 508 kts | 120° |
| 2026-05-01 08:23 | 20.98068 | 115.85193 | 40957 ft | 507 kts | 120° |
| 2026-05-01 08:23 | 20.94552 | 115.91723 | 40958 ft | 506 kts | 120° |
| 2026-05-01 08:24 | 20.91038 | 115.98244 | 40952 ft | 506 kts | 121° |
| 2026-05-01 08:24 | 20.87513 | 116.04766 | 40953 ft | 506 kts | 121° |
| 2026-05-01 08:25 | 20.83151 | 116.10603 | 40955 ft | 502 kts | 139° |
| 2026-05-01 08:25 | 20.77530 | 116.14994 | 40952 ft | 501 kts | 148° |
| 2026-05-01 08:26 | 20.71683 | 116.18956 | 40951 ft | 501 kts | 149° |
| 2026-05-01 08:26 | 20.65730 | 116.22918 | 40949 ft | 501 kts | 149° |
| 2026-05-01 08:27 | 20.59874 | 116.26850 | 40943 ft | 501 kts | 150° |
| 2026-05-01 08:27 | 20.53989 | 116.30823 | 40953 ft | 500 kts | 150° |
| 2026-05-01 08:28 | 20.48110 | 116.34797 | 40937 ft | 500 kts | 150° |
| 2026-05-01 08:28 | 20.42231 | 116.38766 | 40951 ft | 500 kts | 150° |
| 2026-05-01 08:29 | 20.36351 | 116.42730 | 40941 ft | 500 kts | 150° |
| 2026-05-01 08:29 | 20.30470 | 116.46691 | 40923 ft | 500 kts | 150° |
| 2026-05-01 08:30 | 20.24589 | 116.50650 | 40937 ft | 500 kts | 150° |
| 2026-05-01 08:30 | 20.18702 | 116.54608 | 40939 ft | 500 kts | 150° |
| 2026-05-01 08:31 | 20.12821 | 116.58558 | 40932 ft | 500 kts | 150° |
| 2026-05-01 08:31 | 20.06935 | 116.62508 | 40934 ft | 500 kts | 150° |
| 2026-05-01 08:32 | 20.01121 | 116.66555 | 40930 ft | 502 kts | 144° |
| 2026-05-01 08:32 | 19.96055 | 116.71687 | 40927 ft | 504 kts | 135° |
| 2026-05-01 08:33 | 19.91289 | 116.77173 | 40928 ft | 505 kts | 134° |
| 2026-05-01 08:33 | 19.86568 | 116.82705 | 40927 ft | 505 kts | 134° |
| 2026-05-01 08:34 | 19.81834 | 116.88225 | 40923 ft | 505 kts | 134° |
| 2026-05-01 08:34 | 19.77087 | 116.93725 | 40925 ft | 505 kts | 135° |
| 2026-05-01 08:35 | 19.72363 | 116.99185 | 40926 ft | 505 kts | 135° |
| 2026-05-01 08:35 | 19.67610 | 117.04673 | 40924 ft | 505 kts | 135° |
| 2026-05-01 08:36 | 19.62858 | 117.10156 | 40924 ft | 505 kts | 135° |
| 2026-05-01 08:36 | 19.58098 | 117.15645 | 40919 ft | 505 kts | 135° |
| 2026-05-01 08:37 | 19.53342 | 117.21123 | 40922 ft | 505 kts | 135° |
| 2026-05-01 08:37 | 19.49380 | 117.25682 | 40920 ft | 506 kts | 135° |
| 2026-05-01 08:38 | 19.44617 | 117.31160 | 40921 ft | 506 kts | 135° |
| 2026-05-01 08:38 | 19.39849 | 117.36637 | 40918 ft | 506 kts | 135° |
| 2026-05-01 08:39 | 19.35078 | 117.42113 | 40920 ft | 506 kts | 135° |
| 2026-05-01 08:39 | 19.30309 | 117.47582 | 40911 ft | 505 kts | 135° |
| 2026-05-01 08:40 | 19.23146 | 117.55786 | 40914 ft | 506 kts | 135° |
| 2026-05-01 08:40 | 19.18366 | 117.61255 | 40910 ft | 507 kts | 136° |
| 2026-05-01 08:41 | 19.13578 | 117.66727 | 40912 ft | 507 kts | 136° |
| 2026-05-01 08:41 | 19.08785 | 117.72200 | 40910 ft | 507 kts | 136° |
| 2026-05-01 08:42 | 19.03992 | 117.77668 | 40912 ft | 507 kts | 136° |
| 2026-05-01 08:42 | 18.99200 | 117.83137 | 40909 ft | 507 kts | 136° |
| 2026-05-01 08:43 | 18.94402 | 117.88597 | 40907 ft | 507 kts | 136° |
| 2026-05-01 08:43 | 18.89602 | 117.94055 | 40909 ft | 507 kts | 136° |
| 2026-05-01 08:44 | 18.84803 | 117.99509 | 40897 ft | 507 kts | 136° |
| 2026-05-01 08:44 | 18.79999 | 118.04965 | 40907 ft | 508 kts | 136° |
| 2026-05-01 08:45 | 18.75186 | 118.10426 | 40905 ft | 508 kts | 136° |
| 2026-05-01 08:45 | 18.70396 | 118.15856 | 40905 ft | 509 kts | 136° |
| 2026-05-01 08:46 | 18.65545 | 118.21351 | 40903 ft | 509 kts | 136° |
| 2026-05-01 08:46 | 18.60751 | 118.26775 | 40903 ft | 509 kts | 136° |
| 2026-05-01 08:47 | 18.55924 | 118.32232 | 40899 ft | 509 kts | 136° |
| 2026-05-01 08:47 | 18.51096 | 118.37686 | 40890 ft | 509 kts | 136° |
| 2026-05-01 08:48 | 18.46267 | 118.43136 | 40899 ft | 510 kts | 136° |
| 2026-05-01 08:48 | 18.41423 | 118.48598 | 40893 ft | 511 kts | 136° |
| 2026-05-01 08:49 | 18.36569 | 118.54066 | 40899 ft | 511 kts | 136° |
| 2026-05-01 08:49 | 18.31718 | 118.59527 | 40896 ft | 511 kts | 136° |
| 2026-05-01 08:50 | 18.26866 | 118.64984 | 40894 ft | 511 kts | 136° |
| 2026-05-01 08:50 | 18.22010 | 118.70440 | 40892 ft | 511 kts | 136° |
| 2026-05-01 08:51 | 18.17154 | 118.75891 | 40892 ft | 511 kts | 136° |
| 2026-05-01 08:51 | 18.12298 | 118.81338 | 40892 ft | 511 kts | 136° |
| 2026-05-01 08:52 | 18.07431 | 118.86792 | 40889 ft | 511 kts | 136° |
| 2026-05-01 08:52 | 18.02567 | 118.92239 | 40889 ft | 512 kts | 136° |
| 2026-05-01 08:53 | 17.97186 | 118.96996 | 40893 ft | 502 kts | 153° |
| 2026-05-01 08:53 | 17.91169 | 119.00687 | 40886 ft | 500 kts | 155° |
| 2026-05-01 08:54 | 17.85072 | 119.04191 | 40884 ft | 500 kts | 156° |
| 2026-05-01 08:54 | 17.78961 | 119.07688 | 40883 ft | 500 kts | 155° |
| 2026-05-01 08:55 | 17.72862 | 119.11203 | 40882 ft | 501 kts | 155° |
| 2026-05-01 08:55 | 17.66763 | 119.14730 | 40880 ft | 501 kts | 155° |
| 2026-05-01 08:56 | 17.60661 | 119.18260 | 40881 ft | 501 kts | 155° |
| 2026-05-01 08:56 | 17.54562 | 119.21784 | 40878 ft | 501 kts | 155° |
| 2026-05-01 08:57 | 17.48466 | 119.25303 | 40877 ft | 501 kts | 155° |
| 2026-05-01 08:57 | 17.42365 | 119.28822 | 40867 ft | 500 kts | 155° |
| 2026-05-01 08:58 | 17.36269 | 119.32335 | 40876 ft | 500 kts | 155° |
| 2026-05-01 08:58 | 17.30176 | 119.35843 | 40876 ft | 500 kts | 155° |
| 2026-05-01 08:59 | 17.24081 | 119.39350 | 40872 ft | 500 kts | 155° |
| 2026-05-01 08:59 | 17.17983 | 119.42857 | 40873 ft | 500 kts | 155° |
| 2026-05-01 09:00 | 17.11889 | 119.46358 | 40871 ft | 500 kts | 155° |
| 2026-05-01 09:00 | 17.05830 | 119.49836 | 40873 ft | 500 kts | 155° |
| 2026-05-01 09:01 | 16.99725 | 119.53338 | 40870 ft | 501 kts | 155° |
| 2026-05-01 09:01 | 16.93617 | 119.56840 | 40870 ft | 501 kts | 155° |
| 2026-05-01 09:02 | 16.87511 | 119.60338 | 40870 ft | 501 kts | 155° |
| 2026-05-01 09:02 | 16.81401 | 119.63835 | 40870 ft | 501 kts | 155° |
| 2026-05-01 09:03 | 16.75294 | 119.67328 | 40863 ft | 501 kts | 155° |
| 2026-05-01 09:03 | 16.69185 | 119.70819 | 40870 ft | 500 kts | 155° |
| 2026-05-01 09:04 | 16.63080 | 119.74306 | 40870 ft | 500 kts | 155° |
| 2026-05-01 09:04 | 16.56973 | 119.77792 | 40873 ft | 500 kts | 155° |
| 2026-05-01 09:05 | 16.50869 | 119.81273 | 40876 ft | 500 kts | 155° |
| 2026-05-01 09:05 | 16.44761 | 119.84754 | 40876 ft | 500 kts | 155° |
| 2026-05-01 09:06 | 16.38664 | 119.88227 | 40875 ft | 499 kts | 155° |
| 2026-05-01 09:06 | 16.32576 | 119.91691 | 40878 ft | 499 kts | 155° |
| 2026-05-01 09:07 | 16.26483 | 119.95156 | 40632 ft | 498 kts | 155° |
| 2026-05-01 09:07 | 16.23450 | 119.96881 | 40017 ft | 497 kts | 155° |
| 2026-05-01 09:07 | 16.20417 | 119.98604 | 39339 ft | 497 kts | 155° |
| 2026-05-01 09:08 | 16.17378 | 120.00330 | 38691 ft | 497 kts | 155° |
| 2026-05-01 09:08 | 16.14343 | 120.02053 | 37973 ft | 497 kts | 155° |
| 2026-05-01 09:08 | 16.11314 | 120.03772 | 37303 ft | 495 kts | 155° |
| 2026-05-01 09:08 | 16.08298 | 120.05483 | 36639 ft | 494 kts | 155° |
| 2026-05-01 09:09 | 16.05457 | 120.07095 | 36013 ft | 493 kts | 155° |
| 2026-05-01 09:09 | 16.02425 | 120.08814 | 35320 ft | 493 kts | 155° |
| 2026-05-01 09:09 | 15.99409 | 120.10522 | 34550 ft | 495 kts | 155° |
| 2026-05-01 09:09 | 15.96375 | 120.12240 | 33739 ft | 498 kts | 155° |
| 2026-05-01 09:10 | 15.93327 | 120.13965 | 32864 ft | 500 kts | 155° |
| 2026-05-01 09:10 | 15.90305 | 120.15674 | 32034 ft | 501 kts | 154° |
| 2026-05-01 09:10 | 15.87235 | 120.17410 | 31164 ft | 504 kts | 154° |
| 2026-05-01 09:10 | 15.84170 | 120.19146 | 30583 ft | 500 kts | 154° |
| 2026-05-01 09:11 | 15.81131 | 120.20867 | 30013 ft | 496 kts | 154° |
| 2026-05-01 09:11 | 15.78115 | 120.22574 | 29350 ft | 492 kts | 154° |
| 2026-05-01 09:11 | 15.75087 | 120.24287 | 28735 ft | 486 kts | 153° |
| 2026-05-01 09:11 | 15.72172 | 120.25933 | 28144 ft | 481 kts | 153° |
| 2026-05-01 09:12 | 15.69244 | 120.27588 | 27592 ft | 477 kts | 153° |
| 2026-05-01 09:12 | 15.66348 | 120.29224 | 26979 ft | 472 kts | 153° |
| 2026-05-01 09:12 | 15.63464 | 120.30853 | 26296 ft | 471 kts | 153° |
| 2026-05-01 09:12 | 15.60618 | 120.32458 | 26056 ft | 459 kts | 153° |
| 2026-05-01 09:13 | 15.57859 | 120.34013 | 25928 ft | 444 kts | 153° |
| 2026-05-01 09:13 | 15.55184 | 120.35523 | 25750 ft | 432 kts | 153° |
| 2026-05-01 09:13 | 15.52580 | 120.36993 | 25573 ft | 420 kts | 153° |
| 2026-05-01 09:13 | 15.50050 | 120.38423 | 25371 ft | 407 kts | 153° |
| 2026-05-01 09:14 | 15.47639 | 120.39784 | 25188 ft | 383 kts | 153° |
| 2026-05-01 09:14 | 15.45355 | 120.41070 | 24992 ft | 367 kts | 153° |
| 2026-05-01 09:14 | 15.43108 | 120.42333 | 24555 ft | 367 kts | 153° |
| 2026-05-01 09:14 | 15.40803 | 120.43448 | 24127 ft | 365 kts | 161° |
| 2026-05-01 09:15 | 15.38398 | 120.44271 | 23728 ft | 363 kts | 163° |
| 2026-05-01 09:15 | 15.35986 | 120.45033 | 23304 ft | 362 kts | 163° |
| 2026-05-01 09:15 | 15.33588 | 120.45787 | 22874 ft | 358 kts | 163° |
| 2026-05-01 09:15 | 15.31211 | 120.46536 | 22468 ft | 355 kts | 163° |
| 2026-05-01 09:16 | 15.28865 | 120.47278 | 22089 ft | 351 kts | 163° |
| 2026-05-01 09:16 | 15.26546 | 120.48010 | 21707 ft | 347 kts | 163° |
| 2026-05-01 09:16 | 15.24248 | 120.48738 | 21321 ft | 344 kts | 163° |
| 2026-05-01 09:17 | 15.19714 | 120.50178 | 20565 ft | 338 kts | 162° |
| 2026-05-01 09:17 | 15.17477 | 120.50888 | 20187 ft | 335 kts | 162° |
| 2026-05-01 09:17 | 15.13057 | 120.52294 | 19435 ft | 330 kts | 162° |
| 2026-05-01 09:18 | 15.10873 | 120.52985 | 19075 ft | 327 kts | 162° |
| 2026-05-01 09:18 | 15.06548 | 120.54357 | 18338 ft | 323 kts | 162° |
| 2026-05-01 09:19 | 15.02279 | 120.55708 | 17551 ft | 318 kts | 161° |
| 2026-05-01 09:19 | 15.00172 | 120.56375 | 17195 ft | 314 kts | 161° |
| 2026-05-01 09:19 | 14.98093 | 120.57033 | 16837 ft | 311 kts | 161° |
| 2026-05-01 09:20 | 14.93997 | 120.58333 | 16098 ft | 305 kts | 161° |
| 2026-05-01 09:20 | 14.89962 | 120.59609 | 15381 ft | 301 kts | 161° |
| 2026-05-01 09:21 | 14.85996 | 120.60861 | 14686 ft | 296 kts | 161° |
| 2026-05-01 09:21 | 14.84036 | 120.61480 | 14345 ft | 294 kts | 161° |
| 2026-05-01 09:21 | 14.80149 | 120.62708 | 13647 ft | 290 kts | 160° |
| 2026-05-01 09:22 | 14.76337 | 120.63912 | 12940 ft | 287 kts | 160° |
| 2026-05-01 09:22 | 14.72541 | 120.65112 | 12261 ft | 284 kts | 160° |
| 2026-05-01 09:23 | 14.70658 | 120.65707 | 11929 ft | 282 kts | 160° |
| 2026-05-01 09:23 | 14.66920 | 120.66887 | 11265 ft | 279 kts | 160° |
| 2026-05-01 09:24 | 14.63835 | 120.67860 | 10835 ft | 270 kts | 160° |
| 2026-05-01 09:24 | 14.62077 | 120.68435 | 10644 ft | 262 kts | 157° |
| 2026-05-01 09:24 | 14.58786 | 120.70200 | 10020 ft | 269 kts | 148° |
| 2026-05-01 09:25 | 14.55548 | 120.72112 | 9343 ft | 266 kts | 148° |
| 2026-05-01 09:25 | 14.52217 | 120.73285 | 8623 ft | 252 kts | 185° |
| 2026-05-01 09:26 | 14.50632 | 120.72601 | 8286 ft | 250 kts | 218° |
| 2026-05-01 09:26 | 14.48671 | 120.69621 | 7706 ft | 252 kts | 240° |
| 2026-05-01 09:26 | 14.47819 | 120.68042 | 7409 ft | 251 kts | 240° |
| 2026-05-01 09:27 | 14.46065 | 120.64941 | 6861 ft | 251 kts | 232° |
| 2026-05-01 09:27 | 14.44796 | 120.63698 | 6589 ft | 252 kts | 209° |
| 2026-05-01 09:27 | 14.43169 | 120.63172 | 6310 ft | 243 kts | 179° |
| 2026-05-01 09:28 | 14.41565 | 120.63587 | 6062 ft | 232 kts | 145° |
| 2026-05-01 09:28 | 14.40498 | 120.64741 | 5993 ft | 225 kts | 113° |
| 2026-05-01 09:28 | 14.40092 | 120.66246 | 5811 ft | 215 kts | 97° |
| 2026-05-01 09:28 | 14.39740 | 120.67737 | 5524 ft | 213 kts | 103° |
| 2026-05-01 09:29 | 14.39197 | 120.70717 | 4636 ft | 208 kts | 96° |
| 2026-05-01 09:29 | 14.39087 | 120.72190 | 4147 ft | 205 kts | 92° |
| 2026-05-01 09:30 | 14.39238 | 120.75094 | 3241 ft | 201 kts | 82° |
| 2026-05-01 09:30 | 14.39374 | 120.76514 | 3031 ft | 199 kts | 89° |
| 2026-05-01 09:30 | 14.39327 | 120.79367 | 3000 ft | 194 kts | 90° |
| 2026-05-01 09:31 | 14.39595 | 120.80667 | 2991 ft | 180 kts | 71° |
| 2026-05-01 09:31 | 14.40103 | 120.81823 | 3001 ft | 176 kts | 65° |
| 2026-05-01 09:31 | 14.41231 | 120.84049 | 3004 ft | 174 kts | 64° |
| 2026-05-01 09:32 | 14.41810 | 120.85135 | 3003 ft | 173 kts | 63° |
| 2026-05-01 09:32 | 14.42962 | 120.87299 | 2770 ft | 170 kts | 64° |
| 2026-05-01 09:32 | 14.43530 | 120.88364 | 2548 ft | 170 kts | 63° |
| 2026-05-01 09:33 | 14.44110 | 120.89433 | 2301 ft | 172 kts | 63° |
| 2026-05-01 09:33 | 14.44683 | 120.90501 | 2065 ft | 167 kts | 64° |
| 2026-05-01 09:33 | 14.45796 | 120.92574 | 1662 ft | 164 kts | 63° |
| 2026-05-01 09:34 | 14.46351 | 120.93603 | 1458 ft | 165 kts | 63° |
| 2026-05-01 09:34 | 14.46902 | 120.94630 | 1220 ft | 159 kts | 63° |
| 2026-05-01 09:34 | 14.47909 | 120.96525 | 832 ft | 142 kts | 67° |
| 2026-05-01 09:35 | 14.48351 | 120.97405 | 642 ft | 136 kts | 61° |
| 2026-05-01 09:35 | 14.49308 | 120.99109 | 347 ft | 137 kts | 66° |
| 2026-05-01 09:35 | 14.49773 | 120.99966 | 158 ft | 137 kts | 65° |
| 2026-05-01 09:36 | 14.50232 | 121.00798 | 67 ft | 127 kts | 64° |
| 2026-05-01 09:36 | 14.50555 | 121.01391 | 65 ft | 57 kts | 60° |
| 2026-05-01 09:36 | 14.50659 | 121.01579 | 64 ft | 22 kts | 60° |
| 2026-05-01 09:36 | 14.50751 | 121.01704 | 66 ft | 22 kts | 43° |
| 2026-05-01 09:37 | 14.50853 | 121.01783 | 67 ft | 9 kts | 22° |
| 2026-05-01 09:37 | 14.50933 | 121.01797 | 69 ft | 5 kts | 58° |
| 2026-05-01 09:37 | 14.50954 | 121.01834 | 65 ft | 7 kts | 59° |
| 2026-05-01 09:38 | 14.51016 | 121.01928 | 64 ft | 6 kts | 23° |
| 2026-05-01 09:38 | 14.51040 | 121.01915 | 64 ft | 5 kts | 319° |
| 2026-05-01 09:38 | 14.51079 | 121.01874 | 68 ft | 11 kts | 315° |
| 2026-05-01 09:39 | 14.51234 | 121.01715 | 70 ft | 19 kts | 314° |
| 2026-05-01 09:39 | 14.51334 | 121.01611 | 65 ft | 22 kts | 315° |
| 2026-05-01 09:39 | 14.51446 | 121.01496 | 64 ft | 24 kts | 315° |
| 2026-05-01 09:40 | 14.51566 | 121.01373 | 67 ft | 20 kts | 315° |
| 2026-05-01 09:40 | 14.51680 | 121.01327 | 64 ft | 7 kts | 37° |
| 2026-05-01 09:40 | 14.51682 | 121.01353 | 64 ft | 4 kts | 104° |
| 2026-05-01 09:41 | 14.51665 | 121.01375 | 70 ft | 5 kts | 134° |
| 2026-05-01 09:41 | 14.51661 | 121.01420 | 69 ft | 4 kts | 51° |
| 2026-05-01 09:41 | 14.51688 | 121.01448 | 67 ft | 7 kts | 45° |
| 2026-05-01 09:42 | 14.51705 | 121.01465 | 72 ft | 0 kts | 45° |
| 2026-05-01 09:43 | 14.51705 | 121.01464 | 75 ft | 0 kts | 45° |
| 2026-05-01 09:49 | 14.51704 | 121.01464 | 75 ft | 0 kts | 45° |